Aérodrome :
LOGIN :

S'inscrire | Disclaimer

   EN    FR    IT 

 










Légende :    VFR   VFR Marginal   IFR   IFR Intensif   IFR Très Intensif
Visi : 
Plafond : 
>= 8 km
>= 3000ft
5 à 8 km
1000 à 3000 ft
1500m à 5 km
500 à 1000 ft
800 à 1500m
200 à 500 ft
< 800m
< 200 ft
Symboles :   Orages  Brouillard  Fortes neiges  Fortes précipitations  Vent > 20 kt
SIGMETs :   Divers  Orages  Givrage  Turbulence  Onde Orograph.  Cendres Volcan.






- Altitude de l'aérodrome : 463 ft
- Code IATA : HME


DAUH - Oued Irara-Krim Belkacem

DERNIER METAR :
  • 211300Z 01006KT CAVOK 34/09 Q1012

METARs EXPIRÉS :
  • 211230Z 35005KT CAVOK 34/09 Q1013
  • 211200Z 34005KT CAVOK 33/09 Q1013
  • 211130Z 02003KT CAVOK 33/09 Q1013
  • 211100Z 30002KT CAVOK 31/09 Q1014
  • 211030Z 05002KT CAVOK 32/09 Q1014

TAF TAF DAUH
Valide du 21 à 12h jusqu'au 22 à 12h UTC


211100Z 2112/2212 09008KT CAVOK
BECMG 2206/2210 16014KT
PROB40
TEMPO 2209/2212 16015G25KT 4000 DRSA



MET'MAP, la Météo Aéronautique d'un coup d'oeil ! - Copyright ORBIFLY Décembre 2007 - Disclaimer

ORBIFLY MET'MAP TEAM :

Programmation & Développement : Alexandra Zaïnal
Conception & Développement : Baudouin d'Aumeries
Co-Programmation & Développement : Marc-Olivier Méhu
Soutien technique & logistique : Manuel Goepfert

Contact : metmap@orbifly.com




SOURCES & CREDITS :

   NOAA